Startpagina
METAR-TAF:

METAR-TAF

Vliegvelden :

Machala, Ecuador

breedte: 03-26-07S, lengte: 079-58-40W, hoogte: 52 m

Actueel weer

Dit bericht is 58 minuten geleden gemaakt, om 19:00 UTC
Wind 8 kt uit het noordwesten
Temperatuur 31°C
Vochtigheid 66%
Druk 1010 hPa
Zicht 10 km of meer
Weinig wolken op 1600 ft
Gebroken wolken op 8000 ft

METAR: SERO 071900Z 31008KT 9999 FEW016 BKN080 31/24 Q1010

Tijdstip: 14:58 (19:58 UTC)


TAF: ontbreekt

Waarnemingen en weersverwachtingen van meer dan 4000 vliegvelden (METAR en TAF).

De beschikbare stations zijn de gele en rode punten op de kaart.

Ga met uw muis naar het station om de naam te zien.

Klik dan om waarnemingen en weersverwachtingen te zien.

kaart wijzigen: klik op de groene knoppen met een zwart kruis om in te zoomen, op de groene knop met een streepje om uit te zoomen of op de groene pijlen voor aangrenzende kaarten.


METAR-TAF: